Accueil
METAR-TAF:

METAR-TAF

Aéroports :

Wakefield Municipal Airport

Wakefield, Virginie, États-Unis

latitude: 36-58-53N, longitude: 077-00-04W, altitude: 34 m

Observation

Le bulletin a été fait il y a 1 heure et 2 minutes, à 20:54 UTC
Vent 10 kt de ouest/sud-ouest avec des rafales jusqu'à 15 kt
Température 28°C
Humidité 45%
Pression 1015 hPa
Visibilité: 16.1 km
Nuages épars à une hauteur de 11000 ft

METAR: KAKQ 022054Z AUTO 24010G15KT 10SM SCT110 28/15 A2998 RMK AO2 SLP150 T02830150 56026

Heure: 17:56 (21:56 UTC)


TAF: absent

Observations et prévisions météorologiques de plus de 4000 aéroports (messages METAR et TAF).

Les stations disponibles sont représentées par des disques jaunes et rouges sur la carte.

Passer la souris dessus pour voir le nom de la station.

Cliquer dessus pour voir les observations et prévisions météorologiques.

Pour changer de carte: cliquez sur les boutons verts avec une croix noire pour zoomer, sur le bouton vert avec un tiret pour effectuer un zoom arrière, ou sur les flèches vertes pour les cartes adjacentes.


METAR-TAF: